Guetsch, Switzerland
Current Conditions -  °F | °C
As of 2:50 PM on Monday 20 Oct 2014 (Local Time) from LSMM Reporting Station
Scattered Clouds Scattered Clouds  
Wind Chill: 63°   Ceiling: Unl
Heat Index: 63°   Visibility: 6mi
Dew Point: 50°   Wind: 6mph
Humidity: 63%   Direction: 240°WSW
Pressure: 30.12"   Gusts: NA
Location:  46.65°N, 8.62°E
Report Text: LSMM 201250Z 24005KT 210V290 9999 SCT100 17/10 Q1020 RMK BLU
Loading
Personal Weather Stations






























Interactive Weather Map
Tropical Storm Tracking
New forecast layout! Learn more

10-Day Weather Forecast

Advertisements
Track Severe Weather on mobile